createdAt,value
2019-06-07T00:01:42.026Z,99.90
2019-06-07T00:04:11.547Z,99.90
2019-06-07T00:06:40.251Z,99.90
2019-06-07T00:09:10.099Z,99.90
2019-06-07T00:11:38.671Z,99.90
2019-06-07T00:14:08.589Z,99.90
2019-06-07T00:16:37.043Z,99.90
2019-06-07T00:19:05.273Z,99.90
2019-06-07T00:22:13.879Z,99.90
2019-06-07T00:24:04.104Z,99.90
2019-06-07T00:26:32.413Z,99.90
2019-06-07T00:29:00.622Z,99.90
2019-06-07T00:31:28.929Z,99.90
2019-06-07T00:33:57.209Z,99.90
2019-06-07T00:36:25.513Z,99.90
2019-06-07T00:38:53.768Z,99.90
2019-06-07T00:41:22.401Z,99.90
2019-06-07T00:43:50.776Z,99.90
2019-06-07T00:46:21.670Z,99.90
2019-06-07T00:48:49.073Z,99.90
2019-06-07T00:51:18.980Z,99.90
2019-06-07T00:53:47.304Z,99.90
2019-06-07T00:56:16.304Z,99.90
2019-06-07T00:58:44.796Z,99.90
2019-06-07T01:01:17.150Z,99.90
2019-06-07T01:03:43.151Z,99.90
2019-06-07T01:06:12.368Z,99.90
2019-06-07T01:08:40.971Z,99.90
2019-06-07T01:11:09.238Z,99.90
2019-06-07T01:13:37.469Z,99.90
2019-06-07T01:16:05.753Z,99.90
2019-06-07T01:18:39.218Z,99.90
2019-06-07T01:21:04.130Z,99.90
2019-06-07T01:24:04.779Z,99.90
2019-06-07T01:26:02.464Z,99.90
2019-06-07T01:28:32.918Z,99.90
2019-06-07T01:31:02.046Z,99.90
2019-06-07T01:33:49.876Z,99.90
2019-06-07T01:36:00.238Z,99.90
2019-06-07T01:38:30.009Z,99.90
2019-06-07T01:40:58.440Z,99.90
2019-06-07T01:43:28.696Z,99.90
2019-06-07T01:45:56.628Z,99.90
2019-06-07T01:48:27.769Z,99.90
2019-06-07T01:50:54.940Z,99.90
2019-06-07T01:53:25.734Z,99.90
2019-06-07T01:55:53.587Z,99.90
2019-06-07T01:58:24.782Z,99.90
2019-06-07T02:00:52.415Z,99.90
2019-06-07T02:03:22.270Z,99.90
2019-06-07T02:05:50.788Z,99.90
2019-06-07T02:08:20.424Z,99.90
2019-06-07T02:10:49.002Z,99.90
2019-06-07T02:13:17.326Z,99.90
2019-06-07T02:15:45.584Z,99.90
2019-06-07T02:18:13.801Z,99.90
2019-06-07T02:20:42.148Z,99.90
2019-06-07T02:23:10.410Z,99.90
2019-06-07T02:25:49.564Z,99.90
2019-06-07T02:28:27.277Z,99.90
2019-06-07T02:30:47.099Z,99.90
2019-06-07T02:33:08.788Z,99.90
2019-06-07T02:35:40.179Z,99.90
2019-06-07T02:38:07.046Z,99.90
2019-06-07T02:40:37.417Z,99.90
2019-06-07T02:43:05.261Z,99.90
2019-06-07T02:45:42.147Z,99.90
2019-06-07T02:48:03.550Z,99.90
2019-06-07T02:50:37.938Z,99.90
2019-06-07T02:53:01.950Z,99.90
2019-06-07T02:55:36.570Z,99.90
2019-06-07T02:58:00.289Z,99.90
2019-06-07T03:01:08.649Z,99.90
2019-06-07T03:03:24.601Z,99.90
2019-06-07T03:05:53.140Z,99.90
2019-06-07T03:08:21.407Z,99.90
2019-06-07T03:10:50.412Z,99.90
2019-06-07T03:13:19.709Z,99.90
2019-06-07T03:15:50.200Z,99.90
2019-06-07T03:18:50.065Z,99.90
2019-06-07T03:21:21.174Z,99.90
2019-06-07T03:23:50.903Z,99.90
2019-06-07T03:26:20.634Z,99.90
2019-06-07T03:28:49.294Z,99.90
2019-06-07T03:31:17.537Z,99.90
2019-06-07T03:33:45.950Z,99.90
2019-06-07T03:36:23.852Z,99.90
2019-06-07T03:38:44.399Z,99.90
2019-06-07T03:41:12.728Z,99.90
2019-06-07T03:43:41.086Z,99.90
2019-06-07T03:46:09.358Z,99.90
2019-06-07T03:48:41.024Z,99.90
2019-06-07T03:51:24.144Z,99.90
2019-06-07T03:53:40.792Z,99.90
2019-06-07T03:56:07.799Z,99.90
2019-06-07T03:58:48.258Z,99.90
2019-06-07T04:01:06.115Z,99.90
2019-06-07T04:03:43.558Z,99.90
2019-06-07T04:06:04.321Z,99.90
2019-06-07T04:08:34.434Z,99.90
2019-06-07T04:11:02.644Z,99.90
2019-06-07T04:13:34.785Z,99.90
2019-06-07T04:16:02.307Z,99.90
2019-06-07T04:18:30.679Z,99.90
2019-06-07T04:20:58.936Z,99.90
2019-06-07T04:23:31.029Z,99.90
2019-06-07T04:25:57.258Z,99.90
2019-06-07T04:29:19.156Z,99.90
2019-06-07T04:30:55.690Z,99.90
2019-06-07T04:33:23.998Z,99.90
2019-06-07T04:35:53.622Z,99.90
2019-06-07T04:38:22.585Z,99.90
2019-06-07T04:40:51.607Z,99.90
2019-06-07T04:43:19.853Z,99.90
2019-06-07T04:45:52.045Z,99.90
2019-06-07T04:48:21.233Z,99.90
2019-06-07T04:50:49.978Z,99.90
2019-06-07T04:53:18.388Z,99.90
2019-06-07T04:55:46.708Z,99.90
2019-06-07T04:58:14.996Z,99.90
2019-06-07T05:00:52.419Z,99.90
2019-06-07T05:03:13.403Z,99.90
2019-06-07T05:05:43.765Z,99.90
2019-06-07T05:08:27.654Z,99.90
2019-06-07T05:10:43.997Z,99.90
2019-06-07T05:13:11.896Z,99.90
2019-06-07T05:15:42.218Z,99.90
2019-06-07T05:18:10.138Z,98.70
2019-06-07T05:20:44.302Z,98.20
2019-06-07T05:23:11.308Z,97.20
2019-06-07T05:25:44.462Z,96.60
2019-06-07T05:28:09.630Z,96.70
2019-06-07T05:31:08.360Z,98.90
2019-06-07T05:33:08.933Z,99.70
2019-06-07T05:35:40.080Z,99.90
2019-06-07T05:38:07.920Z,99.90
2019-06-07T05:40:39.432Z,99.90
2019-06-07T05:43:07.207Z,99.90
2019-06-07T05:45:39.240Z,99.90
2019-06-07T05:48:06.843Z,99.90
2019-06-07T05:50:46.300Z,99.90
2019-06-07T05:53:06.069Z,99.90
2019-06-07T05:55:37.674Z,99.90
2019-06-07T05:58:05.479Z,99.90
2019-06-07T06:00:36.407Z,99.90
2019-06-07T06:03:06.140Z,99.90
2019-06-07T06:05:41.337Z,99.90
2019-06-07T06:08:04.674Z,99.90
2019-06-07T06:10:33.945Z,99.90
2019-06-07T06:13:02.715Z,99.90
2019-06-07T06:15:42.324Z,99.90
2019-06-07T06:18:00.970Z,99.90
2019-06-07T06:20:34.869Z,99.90
2019-06-07T06:22:59.214Z,99.90
2019-06-07T06:25:33.064Z,99.90
2019-06-07T06:28:10.197Z,99.90
2019-06-07T06:30:27.502Z,99.90
2019-06-07T06:32:58.562Z,99.90
2019-06-07T06:35:25.818Z,99.90
2019-06-07T06:37:54.132Z,99.90
2019-06-07T06:40:22.485Z,99.90
2019-06-07T06:42:50.764Z,99.90
2019-06-07T06:45:19.443Z,99.90
2019-06-07T06:47:50.547Z,99.90
2019-06-07T06:50:18.138Z,99.90
2019-06-07T06:52:50.763Z,99.90
2019-06-07T06:55:16.801Z,99.90
2019-06-07T06:57:45.860Z,99.90
2019-06-07T07:00:15.008Z,99.90
2019-06-07T07:03:32.408Z,99.90
2019-06-07T07:05:14.924Z,99.90
2019-06-07T07:07:45.174Z,99.90
2019-06-07T07:10:13.623Z,99.90
2019-06-07T07:12:43.053Z,99.90
2019-06-07T07:15:14.071Z,99.90
2019-06-07T07:17:53.931Z,99.90
2019-06-07T07:20:12.821Z,99.90
2019-06-07T07:22:42.675Z,99.90
2019-06-07T07:25:11.019Z,99.90
2019-06-07T07:27:39.301Z,99.90
2019-06-07T07:30:35.379Z,99.90
2019-06-07T07:32:37.705Z,99.90
2019-06-07T07:35:06.497Z,99.90
2019-06-07T07:37:35.039Z,99.90
2019-06-07T07:40:55.039Z,99.90
2019-06-07T07:42:33.287Z,99.90
2019-06-07T07:45:01.591Z,99.90
2019-06-07T07:47:29.958Z,99.90
2019-06-07T07:49:59.077Z,99.90
2019-06-07T07:52:27.654Z,99.90
2019-06-07T07:54:58.168Z,99.90
2019-06-07T07:57:25.927Z,99.90
2019-06-07T08:00:06.121Z,99.90
2019-06-07T08:02:24.194Z,99.90
2019-06-07T08:05:17.682Z,99.90
2019-06-07T08:07:22.663Z,99.90
2019-06-07T08:09:55.690Z,99.90
2019-06-07T08:12:21.272Z,99.90
2019-06-07T08:14:51.107Z,99.90
2019-06-07T08:17:19.628Z,99.90
2019-06-07T08:19:49.940Z,99.90
2019-06-07T08:22:19.225Z,99.90
2019-06-07T08:24:50.507Z,99.90
2019-06-07T08:27:26.344Z,99.90
2019-06-07T08:30:08.982Z,99.90
2019-06-07T08:32:18.089Z,99.90
2019-06-07T08:34:46.307Z,99.90
2019-06-07T08:37:14.939Z,99.90
2019-06-07T08:39:43.227Z,99.90
2019-06-07T08:42:17.490Z,99.90
2019-06-07T08:44:41.540Z,99.90
2019-06-07T08:47:20.443Z,99.90
2019-06-07T08:49:44.515Z,99.90
2019-06-07T08:52:12.879Z,99.90
2019-06-07T08:54:41.407Z,99.90
2019-06-07T08:57:20.667Z,99.90
2019-06-07T08:59:39.770Z,99.90
2019-06-07T09:02:22.963Z,99.90
2019-06-07T09:04:40.399Z,99.90
2019-06-07T09:07:19.239Z,99.90
2019-06-07T09:09:40.196Z,99.90
2019-06-07T09:12:11.313Z,99.90
2019-06-07T09:14:58.774Z,99.90
2019-06-07T09:17:12.021Z,99.90
2019-06-07T09:19:40.767Z,99.90
2019-06-07T09:22:11.244Z,99.90
2019-06-07T09:24:39.485Z,99.90
2019-06-07T09:27:09.940Z,99.90
2019-06-07T09:29:38.253Z,99.90
2019-06-07T09:32:14.850Z,99.90
2019-06-07T09:34:38.039Z,99.90
2019-06-07T09:37:54.335Z,99.90
2019-06-07T09:39:38.031Z,99.90
2019-06-07T09:42:09.939Z,99.90
2019-06-07T09:44:36.315Z,99.90
2019-06-07T09:47:29.567Z,99.90
2019-06-07T09:49:34.625Z,99.90
2019-06-07T09:52:08.444Z,99.90
2019-06-07T09:57:07.507Z,99.90
2019-06-07T09:59:32.926Z,99.90
2019-06-07T10:02:03.606Z,99.90
2019-06-07T10:04:31.742Z,99.90
2019-06-07T10:07:09.034Z,99.90
2019-06-07T10:12:00.387Z,99.90
2019-06-07T10:14:28.877Z,99.90
2019-06-07T10:16:57.137Z,99.90
2019-06-07T10:19:27.392Z,99.90
2019-06-07T10:21:55.698Z,99.90
2019-06-07T10:24:23.978Z,99.90
2019-06-07T10:26:52.917Z,99.90
2019-06-07T10:29:22.388Z,99.90
2019-06-07T10:31:50.647Z,99.90
2019-06-07T10:34:18.876Z,99.90
2019-06-07T10:36:47.144Z,99.90
2019-06-07T10:39:15.606Z,99.90
2019-06-07T10:41:43.888Z,99.90
2019-06-07T10:44:12.149Z,99.90
2019-06-07T10:46:41.211Z,99.90
2019-06-07T10:49:10.119Z,99.90
2019-06-07T10:51:38.821Z,99.80
2019-06-07T10:54:21.003Z,99.70
2019-06-07T10:56:37.166Z,99.90
2019-06-07T10:59:07.036Z,99.60
2019-06-07T11:01:35.312Z,99.30
2019-06-07T11:04:03.572Z,99.90
2019-06-07T11:06:31.844Z,99.40
2019-06-07T11:09:00.092Z,99.90
2019-06-07T11:11:28.486Z,99.30
2019-06-07T11:13:56.876Z,99.30
2019-06-07T11:16:25.141Z,99.40
2019-06-07T11:18:53.425Z,99.90
2019-06-07T11:21:21.685Z,99.90
2019-06-07T11:23:50.031Z,99.80
2019-06-07T11:26:18.669Z,99.90
2019-06-07T11:28:46.982Z,99.50
2019-06-07T11:31:15.272Z,99.90
2019-06-07T11:33:44.851Z,99.90
2019-06-07T11:36:13.202Z,99.90
2019-06-07T11:38:45.881Z,99.70
2019-06-07T11:41:11.863Z,99.50
2019-06-07T11:43:40.285Z,99.40
2019-06-07T11:46:08.844Z,99.60
2019-06-07T11:48:37.520Z,99.90
2019-06-07T11:51:06.704Z,98.90
2019-06-07T11:53:35.502Z,99.40
2019-06-07T11:56:03.803Z,98.10
2019-06-07T11:58:32.126Z,96.90
2019-06-07T12:01:00.423Z,96.90
2019-06-07T12:03:29.713Z,96.70
2019-06-07T12:06:01.451Z,97.20
2019-06-07T12:08:31.759Z,97.10
2019-06-07T12:11:00.045Z,96.80
2019-06-07T12:13:28.978Z,97.00
2019-06-07T12:15:57.749Z,97.20
2019-06-07T12:18:26.035Z,97.10
2019-06-07T12:20:54.349Z,97.80
2019-06-07T12:23:22.665Z,97.60
2019-06-07T12:25:50.978Z,96.40
2019-06-07T12:28:21.959Z,96.80
2019-06-07T12:30:50.263Z,96.80
2019-06-07T12:33:19.696Z,97.00
2019-06-07T12:35:48.312Z,96.00
2019-06-07T12:38:17.398Z,96.70
2019-06-07T12:40:57.232Z,97.00
2019-06-07T12:43:16.827Z,96.90
2019-06-07T12:45:45.748Z,97.70
2019-06-07T12:48:17.553Z,97.10
2019-06-07T12:50:44.282Z,96.20
2019-06-07T12:53:13.625Z,96.30
2019-06-07T12:55:42.233Z,95.50
2019-06-07T12:58:10.574Z,95.60
2019-06-07T13:00:38.977Z,95.70
2019-06-07T13:03:07.875Z,96.00
2019-06-07T13:05:36.205Z,95.80
2019-06-07T13:08:04.625Z,96.30
2019-06-07T13:10:32.915Z,95.80
2019-06-07T13:13:01.432Z,95.20
2019-06-07T13:15:29.703Z,94.40
2019-06-07T13:17:58.093Z,94.90
2019-06-07T13:20:26.535Z,93.50
2019-06-07T13:22:54.923Z,93.40
2019-06-07T13:25:30.034Z,92.10
2019-06-07T13:27:55.608Z,92.40
2019-06-07T13:30:25.408Z,92.50
2019-06-07T13:32:53.921Z,92.50
2019-06-07T13:35:23.739Z,93.40
2019-06-07T13:37:54.696Z,93.60
2019-06-07T13:40:25.122Z,93.40
2019-06-07T13:42:53.565Z,92.50
2019-06-07T13:45:22.371Z,92.50
2019-06-07T13:47:50.964Z,92.90
2019-06-07T13:50:19.721Z,93.00
2019-06-07T13:52:48.491Z,92.40
2019-06-07T13:55:17.875Z,91.40
2019-06-07T13:57:46.262Z,91.60
2019-06-07T14:00:15.114Z,91.80
2019-06-07T14:02:43.367Z,92.20
2019-06-07T14:05:11.810Z,92.30
2019-06-07T14:07:40.759Z,91.80
2019-06-07T14:10:11.642Z,91.10
2019-06-07T14:12:39.210Z,91.50
2019-06-07T14:15:09.316Z,91.30
2019-06-07T14:17:37.729Z,91.50
2019-06-07T14:20:06.369Z,91.40
2019-06-07T14:22:34.740Z,91.70
2019-06-07T14:25:03.428Z,92.00
2019-06-07T14:27:32.013Z,90.70
2019-06-07T14:30:00.615Z,92.00
2019-06-07T14:32:32.730Z,91.00
2019-06-07T14:35:01.462Z,91.00
2019-06-07T14:37:30.975Z,91.10
2019-06-07T14:39:59.734Z,91.00
2019-06-07T14:42:29.221Z,90.10
2019-06-07T14:44:59.685Z,86.50
2019-06-07T14:47:28.105Z,88.70
2019-06-07T14:49:56.486Z,86.90
2019-06-07T14:52:26.289Z,85.30
2019-06-07T14:54:54.821Z,84.50
2019-06-07T14:57:23.059Z,84.70
2019-06-07T14:59:53.737Z,84.80
2019-06-07T15:02:22.043Z,84.00
2019-06-07T15:04:50.769Z,84.60
2019-06-07T15:07:19.120Z,85.60
2019-06-07T15:09:48.090Z,85.90
2019-06-07T15:12:25.030Z,86.00
2019-06-07T15:14:46.446Z,86.80
2019-06-07T15:17:14.887Z,87.30
2019-06-07T15:19:43.162Z,88.50
2019-06-07T15:22:12.848Z,90.10
2019-06-07T15:24:41.113Z,89.50
2019-06-07T15:27:09.412Z,90.30
2019-06-07T15:29:38.443Z,90.10
2019-06-07T15:32:06.891Z,90.40
2019-06-07T15:34:36.356Z,90.50
2019-06-07T15:37:04.939Z,90.00
2019-06-07T15:39:34.465Z,90.40
2019-06-07T15:42:04.612Z,91.10
2019-06-07T15:44:33.377Z,90.70
2019-06-07T15:47:01.921Z,91.10
2019-06-07T15:49:30.352Z,91.10
2019-06-07T15:52:00.624Z,91.70
2019-06-07T15:54:30.168Z,91.60
2019-06-07T15:56:59.123Z,91.70
2019-06-07T15:59:27.396Z,91.80
2019-06-07T16:01:57.157Z,92.10
2019-06-07T16:04:25.460Z,92.40
2019-06-07T16:06:53.773Z,92.90
2019-06-07T16:09:23.511Z,93.00
2019-06-07T16:11:52.173Z,93.20
2019-06-07T16:14:20.595Z,93.40
2019-06-07T16:16:49.086Z,93.90
2019-06-07T16:19:17.355Z,94.30
2019-06-07T16:21:45.728Z,94.60
2019-06-07T16:24:14.094Z,94.50
2019-06-07T16:26:48.521Z,94.90
2019-06-07T16:29:13.434Z,94.90
2019-06-07T16:31:42.807Z,95.00
2019-06-07T16:34:12.391Z,95.30
2019-06-07T16:36:40.691Z,95.70
2019-06-07T16:39:09.204Z,96.00
2019-06-07T16:41:38.392Z,95.90
2019-06-07T16:44:06.825Z,96.30
2019-06-07T16:46:36.582Z,96.40
2019-06-07T16:49:08.323Z,96.30
2019-06-07T16:51:39.372Z,96.90
2019-06-07T16:54:07.742Z,96.70
2019-06-07T16:56:37.436Z,96.90
2019-06-07T16:59:06.223Z,96.20
2019-06-07T17:01:34.501Z,99.10
2019-06-07T17:04:05.640Z,99.90
2019-06-07T17:06:33.972Z,98.30
2019-06-07T17:09:02.516Z,97.40
2019-06-07T17:11:30.905Z,98.50
2019-06-07T17:13:59.280Z,99.20
2019-06-07T17:16:27.659Z,99.00
2019-06-07T17:18:56.003Z,98.90
2019-06-07T17:21:24.327Z,99.40
2019-06-07T17:23:52.908Z,98.90
2019-06-07T17:26:21.317Z,99.00
2019-06-07T17:28:50.114Z,99.90
2019-06-07T17:31:18.514Z,99.90
2019-06-07T17:33:48.082Z,99.90
2019-06-07T17:36:16.623Z,99.90
2019-06-07T17:38:44.997Z,99.90
2019-06-07T17:41:13.335Z,99.90
2019-06-07T17:43:51.843Z,99.90
2019-06-07T17:46:11.759Z,99.90
2019-06-07T17:48:41.430Z,99.90
2019-06-07T17:51:13.512Z,99.90
2019-06-07T17:53:41.959Z,99.90
2019-06-07T17:56:10.698Z,99.90
2019-06-07T17:58:39.844Z,99.90
2019-06-07T18:01:08.245Z,99.90
2019-06-07T18:03:36.660Z,99.90
2019-06-07T18:06:05.814Z,99.90
2019-06-07T18:08:35.421Z,99.90
2019-06-07T18:11:04.149Z,99.90
2019-06-07T18:13:34.809Z,99.90
2019-06-07T18:16:03.572Z,99.90
2019-06-07T18:18:32.040Z,99.90
2019-06-07T18:21:02.354Z,99.90
2019-06-07T18:23:31.040Z,99.90
2019-06-07T18:26:01.361Z,99.90
2019-06-07T18:28:29.757Z,99.90
2019-06-07T18:30:58.971Z,99.90
2019-06-07T18:33:27.396Z,99.90
2019-06-07T18:35:55.745Z,99.90
2019-06-07T18:38:24.081Z,99.90
2019-06-07T18:40:53.272Z,99.90
2019-06-07T18:43:21.898Z,99.90
2019-06-07T18:45:51.430Z,99.90
2019-06-07T18:48:20.156Z,99.90
2019-06-07T18:50:50.672Z,99.90
2019-06-07T18:53:19.730Z,99.90
2019-06-07T18:55:48.107Z,99.90
2019-06-07T18:58:16.461Z,99.90
2019-06-07T19:00:44.936Z,99.90
2019-06-07T19:03:14.512Z,99.90
2019-06-07T19:05:43.020Z,99.90
2019-06-07T19:08:11.357Z,99.90
2019-06-07T19:10:39.854Z,99.90
2019-06-07T19:13:08.504Z,99.90
2019-06-07T19:15:36.861Z,99.90
2019-06-07T19:18:05.183Z,99.90
2019-06-07T19:20:33.642Z,99.90
2019-06-07T19:23:03.455Z,99.90
2019-06-07T19:25:32.374Z,99.90
2019-06-07T19:28:02.329Z,99.90
2019-06-07T19:30:30.954Z,99.90
2019-06-07T19:32:59.717Z,99.90
2019-06-07T19:35:28.919Z,99.90
2019-06-07T19:37:57.891Z,99.90
2019-06-07T19:40:26.722Z,99.90
2019-06-07T19:42:56.446Z,99.90
2019-06-07T19:45:30.428Z,99.90
2019-06-07T19:47:56.574Z,99.90
2019-06-07T19:50:26.255Z,99.90
2019-06-07T19:52:55.082Z,99.90
2019-06-07T19:55:23.372Z,99.90
2019-06-07T19:57:53.249Z,99.90
2019-06-07T20:00:21.896Z,99.90
2019-06-07T20:02:50.341Z,99.90
2019-06-07T20:05:18.867Z,99.90
2019-06-07T20:07:47.361Z,99.90
2019-06-07T20:10:16.191Z,99.90
2019-06-07T20:12:47.213Z,99.90
2019-06-07T20:15:28.452Z,99.90
2019-06-07T20:17:47.664Z,99.90
2019-06-07T20:20:18.019Z,99.90
2019-06-07T20:22:46.759Z,99.90
2019-06-07T20:25:16.771Z,99.90
2019-06-07T20:27:45.151Z,99.90
2019-06-07T20:30:14.353Z,99.90
2019-06-07T20:32:42.779Z,99.90
2019-06-07T20:35:11.494Z,99.90
2019-06-07T20:37:39.949Z,99.90
2019-06-07T20:40:22.958Z,99.90
2019-06-07T20:42:39.290Z,99.90
2019-06-07T20:45:09.683Z,99.90
2019-06-07T20:47:37.968Z,99.90
2019-06-07T20:50:08.680Z,99.90
2019-06-07T20:52:39.672Z,99.90
2019-06-07T20:55:09.618Z,99.90
2019-06-07T20:57:38.172Z,99.90
2019-06-07T21:00:14.544Z,99.90
2019-06-07T21:02:37.644Z,99.90
2019-06-07T21:05:09.892Z,99.90
2019-06-07T21:07:38.526Z,99.90
2019-06-07T21:10:08.282Z,99.90
2019-06-07T21:12:37.056Z,99.90
2019-06-07T21:15:10.781Z,99.90
2019-06-07T21:17:37.049Z,99.90
2019-06-07T21:20:08.201Z,99.90
2019-06-07T21:22:37.160Z,99.90
2019-06-07T21:25:09.856Z,99.90
2019-06-07T21:27:40.011Z,99.90
2019-06-07T21:30:09.504Z,99.90
2019-06-07T21:32:38.250Z,99.90
2019-06-07T21:35:07.993Z,99.90
2019-06-07T21:37:36.554Z,99.90
2019-06-07T21:40:06.067Z,99.90
2019-06-07T21:42:34.762Z,99.90
2019-06-07T21:45:06.291Z,99.90
2019-06-07T21:47:34.894Z,99.90
2019-06-07T21:50:04.833Z,99.90
2019-06-07T21:52:34.214Z,99.90
2019-06-07T21:55:02.933Z,99.90
2019-06-07T21:57:33.655Z,99.90
2019-06-07T22:00:03.255Z,99.90
2019-06-07T22:02:32.431Z,99.90
2019-06-07T22:05:03.306Z,99.90
2019-06-07T22:07:32.452Z,99.90
2019-06-07T22:10:00.692Z,99.90
2019-06-07T22:12:29.036Z,99.90
2019-06-07T22:14:58.123Z,99.90
2019-06-07T22:17:26.856Z,99.90
2019-06-07T22:19:55.198Z,99.90
2019-06-07T22:22:24.433Z,99.90
2019-06-07T22:24:52.715Z,99.90
2019-06-07T22:27:21.042Z,99.90
2019-06-07T22:29:49.365Z,99.90
2019-06-07T22:32:18.923Z,99.90
2019-06-07T22:34:47.632Z,99.90
2019-06-07T22:37:23.264Z,99.90
2019-06-07T22:39:48.437Z,99.90
2019-06-07T22:42:16.820Z,99.90
2019-06-07T22:44:47.508Z,99.90
2019-06-07T22:47:16.437Z,99.90
2019-06-07T22:49:45.067Z,99.90
2019-06-07T22:52:15.235Z,99.90
2019-06-07T22:54:43.392Z,99.90
2019-06-07T22:57:18.996Z,99.90
2019-06-07T22:59:48.151Z,99.90
2019-06-07T23:02:18.724Z,99.90
2019-06-07T23:04:47.165Z,99.90
2019-06-07T23:07:17.024Z,99.90
2019-06-07T23:09:45.609Z,99.90
2019-06-07T23:12:15.222Z,99.90
2019-06-07T23:14:43.749Z,99.90
2019-06-07T23:17:12.024Z,99.90
2019-06-07T23:19:40.271Z,99.90
2019-06-07T23:22:09.819Z,99.90
2019-06-07T23:24:38.288Z,99.90
2019-06-07T23:27:06.682Z,99.90
2019-06-07T23:29:34.890Z,99.90
2019-06-07T23:32:03.155Z,99.90
2019-06-07T23:34:31.442Z,99.90
2019-06-07T23:36:59.675Z,99.90
2019-06-07T23:39:27.962Z,99.90
2019-06-07T23:41:56.204Z,99.90
2019-06-07T23:44:24.514Z,99.90
2019-06-07T23:46:53.315Z,99.90
2019-06-07T23:49:22.558Z,99.90
2019-06-07T23:51:50.991Z,99.90
2019-06-07T23:54:19.914Z,99.90
2019-06-07T23:56:48.499Z,99.90
2019-06-07T23:59:18.066Z,99.90
